Time;durP1;ratioP1;P1;durP2;ratioP2;P2;SDS_P1;SDS_P2;PMS_P1;PMS_P2;Temp;Humidity;BMP_temperature;BMP_pressure;BME280_temperature;BME280_humidity;BME280_pressure;Samples;Min_cycle;Max_cycle;Signal;HPM_P1;HPM_P2
2022/05/10 00:01:37;;;;;;;1.23;0.50;;;;;;;22.31;65.13;102291.56;5055266;28;20025;-66
2022/05/10 00:04:05;;;;;;;0.47;0.10;;;;;;;22.33;64.89;102289.53;5052192;28;20105;-67
2022/05/10 00:06:36;;;;;;;0.57;0.30;;;;;;;22.34;64.73;102294.00;5052537;28;20025;-67
2022/05/10 00:09:02;;;;;;;0.47;0.40;;;;;;;22.38;65.10;102286.31;5052181;28;20025;-67
2022/05/10 00:11:27;;;;;;;1.75;0.40;;;;;;;22.39;64.66;102282.56;5055314;28;20067;-67
2022/05/10 00:13:53;;;;;;;0.73;0.28;;;;;;;22.43;64.74;102279.31;5055924;28;20056;-66
2022/05/10 00:16:18;;;;;;;0.63;0.20;;;;;;;22.46;64.11;102278.97;5056481;28;20017;-67
2022/05/10 00:18:45;;;;;;;0.35;0.15;;;;;;;22.48;63.76;102279.66;5055851;28;20029;-67
2022/05/10 00:21:12;;;;;;;0.30;0.20;;;;;;;22.48;64.49;102282.41;5055839;28;20025;-65
2022/05/10 00:23:38;;;;;;;0.10;0.10;;;;;;;22.52;63.88;102272.00;5067496;28;20524;-66
2022/05/10 00:26:03;;;;;;;0.15;0.10;;;;;;;22.51;64.05;102271.16;5056091;28;20116;-67
2022/05/10 00:28:29;;;;;;;0.85;0.25;;;;;;;22.55;63.51;102281.78;5055323;28;20094;-67
2022/05/10 00:30:54;;;;;;;0.40;0.20;;;;;;;22.54;63.76;102274.56;5055695;28;20086;-67
2022/05/10 00:33:25;;;;;;;0.82;0.30;;;;;;;22.55;62.88;102277.16;5055361;28;20060;-67
2022/05/10 00:35:51;;;;;;;0.30;0.17;;;;;;;22.56;62.95;102278.00;5055611;28;20031;-67
2022/05/10 00:38:16;;;;;;;1.10;0.17;;;;;;;22.56;62.78;102273.38;5070666;28;20474;-66
2022/05/10 00:40:42;;;;;;;0.30;0.30;;;;;;;22.58;62.67;102265.00;5055421;28;20036;-67
2022/05/10 00:43:20;;;;;;;0.57;0.17;;;;;;;22.60;62.83;102257.47;5057872;28;20021;-67
2022/05/10 00:45:55;;;;;;;0.40;0.20;;;;;;;22.63;62.80;102262.59;5055558;28;20064;-67
2022/05/10 00:48:30;;;;;;;0.40;0.22;;;;;;;22.60;63.01;102262.94;5055185;28;20468;-67
2022/05/10 00:51:07;;;;;;;0.85;0.20;;;;;;;22.63;62.99;102262.59;5055220;28;20500;-67
2022/05/10 00:54:02;;;;;;;0.30;0.30;;;;;;;22.64;62.12;102247.88;5055084;28;20025;-67
2022/05/10 00:56:33;;;;;;;0.40;0.20;;;;;;;22.65;61.89;102249.59;5054575;28;20033;-67
2022/05/10 00:59:07;;;;;;;0.65;0.20;;;;;;;22.65;62.29;102249.59;5055118;28;20029;-67
2022/05/10 01:01:34;;;;;;;0.45;0.30;;;;;;;22.67;62.18;102240.16;5054994;28;20017;-67
2022/05/10 01:04:15;;;;;;;0.65;0.20;;;;;;;22.69;62.09;102237.28;5055046;28;20023;-67
2022/05/10 01:07:24;;;;;;;0.60;0.60;;;;;;;22.68;62.75;102232.84;5054948;28;20025;-67
2022/05/10 01:09:54;;;;;;;0.22;0.17;;;;;;;22.68;61.98;102230.94;5054494;28;20106;-67
2022/05/10 01:12:41;;;;;;;0.13;0.13;;;;;;;22.69;61.81;102229.91;5064172;28;20029;-67
2022/05/10 01:15:10;;;;;;;0.43;0.20;;;;;;;22.71;62.06;102227.00;5054866;28;20094;-67
2022/05/10 01:17:36;;;;;;;0.30;0.30;;;;;;;22.70;61.59;102226.16;5054471;28;20021;-67
2022/05/10 01:20:04;;;;;;;0.30;0.10;;;;;;;22.71;61.73;102222.38;5054834;28;20041;-67
2022/05/10 01:22:45;;;;;;;0.20;0.20;;;;;;;22.72;61.28;102217.75;5053384;28;20408;-67
2022/05/10 01:25:42;;;;;;;0.25;0.22;;;;;;;22.73;61.68;102214.00;5055621;28;20020;-67
2022/05/10 01:28:40;;;;;;;0.95;0.40;;;;;;;22.72;61.62;102217.75;5054442;28;20045;-67
2022/05/10 01:31:24;;;;;;;0.73;0.30;;;;;;;22.73;62.13;102208.50;4992684;28;20040;-67
2022/05/10 01:33:54;;;;;;;1.00;0.52;;;;;;;22.74;61.39;102204.72;4992830;28;20023;-67
2022/05/10 01:36:45;;;;;;;0.30;0.30;;;;;;;22.75;62.27;102195.47;4992590;28;20585;-67
2022/05/10 01:39:20;;;;;;;1.10;0.52;;;;;;;22.74;61.53;102202.00;4993087;28;20402;-67
2022/05/10 01:41:58;;;;;;;0.20;0.10;;;;;;;22.75;61.53;102192.75;4992700;28;20034;-67
2022/05/10 01:44:35;;;;;;;0.30;0.20;;;;;;;22.76;61.67;102191.72;4992498;28;20018;-67
2022/05/10 01:47:26;;;;;;;0.30;0.22;;;;;;;22.73;61.85;102192.06;4976299;28;20026;-67
2022/05/10 01:50:02;;;;;;;1.60;0.30;;;;;;;22.76;61.85;102191.72;4993477;28;20085;-65
2022/05/10 01:52:44;;;;;;;1.33;0.30;;;;;;;22.76;61.95;102192.56;4992444;28;20034;-67
2022/05/10 01:55:33;;;;;;;0.65;0.20;;;;;;;22.76;61.83;102197.19;4992422;28;20046;-67
2022/05/10 01:58:03;;;;;;;0.90;0.30;;;;;;;22.77;61.41;102187.94;4998241;28;20109;-67
2022/05/10 02:00:29;;;;;;;0.10;0.10;;;;;;;22.80;61.69;102190.34;4992135;28;20056;-67
2022/05/10 02:03:00;;;;;;;0.30;0.25;;;;;;;22.76;61.62;102175.25;4992338;28;20564;-67
2022/05/10 02:05:58;;;;;;;0.22;0.22;;;;;;;22.77;61.86;102182.47;4993994;28;20069;-67
2022/05/10 02:08:37;;;;;;;0.80;0.40;;;;;;;22.78;61.55;102173.22;5046686;28;20037;-67
2022/05/10 02:11:09;;;;;;;1.70;0.20;;;;;;;22.80;61.22;102172.00;5053766;28;20033;-67
2022/05/10 02:13:50;;;;;;;0.50;0.30;;;;;;;22.81;61.59;102172.84;5053519;28;20024;-67
2022/05/10 02:16:44;;;;;;;0.25;0.20;;;;;;;22.79;62.16;102164.81;5053562;28;20388;-67
2022/05/10 02:19:17;;;;;;;0.25;0.20;;;;;;;22.80;61.09;102161.03;5053715;28;20104;-67
2022/05/10 02:21:51;;;;;;;0.93;0.20;;;;;;;22.81;61.58;102161.91;5055474;28;20117;-67
2022/05/10 02:24:22;;;;;;;0.52;0.17;;;;;;;22.80;62.16;102149.22;5053452;28;20021;-67
2022/05/10 02:27:03;;;;;;;0.45;0.10;;;;;;;22.83;61.93;102159.88;5068566;28;20037;-67
2022/05/10 02:29:29;;;;;;;0.52;0.20;;;;;;;22.83;61.99;102151.66;5068612;28;20078;-67
2022/05/10 02:35:06;;;;;;;0.25;0.10;;;;;;;22.80;61.31;102149.22;5056410;28;20055;-67
2022/05/10 02:37:31;;;;;;;0.20;0.20;;;;;;;22.83;61.89;102145.31;5053035;28;20037;-67
2022/05/10 02:39:58;;;;;;;0.90;0.20;;;;;;;22.87;61.56;102155.78;5068582;28;20031;-67
2022/05/10 02:42:26;;;;;;;0.32;0.10;;;;;;;22.85;61.42;102141.38;5053040;28;20025;-67
2022/05/10 02:44:54;;;;;;;0.13;0.10;;;;;;;22.86;61.53;102148.59;5061058;28;20047;-65
2022/05/10 02:47:49;;;;;;;0.55;0.20;;;;;;;22.84;61.83;102144.28;5063834;28;20017;-67
2022/05/10 02:50:23;;;;;;;0.65;0.22;;;;;;;22.87;61.12;102146.69;4991070;28;20555;-67
2022/05/10 02:52:49;;;;;;;0.10;0.10;;;;;;;22.87;61.30;102139.34;4993363;28;20039;-67
2022/05/10 02:55:18;;;;;;;0.20;0.13;;;;;;;22.87;61.37;102136.59;4991210;28;20045;-67
2022/05/10 02:57:49;;;;;;;0.30;0.20;;;;;;;22.85;61.59;102130.41;4991218;28;20500;-68
2022/05/10 03:00:15;;;;;;;0.30;0.30;;;;;;;22.88;60.99;102135.56;4991132;28;20038;-68
2022/05/10 03:02:45;;;;;;;1.33;0.13;;;;;;;22.87;61.20;102131.09;4991250;28;20027;-67
2022/05/10 03:05:13;;;;;;;0.82;0.40;;;;;;;22.87;61.69;102133.84;4991149;28;20038;-67
2022/05/10 03:07:39;;;;;;;0.45;0.20;;;;;;;22.88;61.50;102135.56;4991005;28;20439;-67
2022/05/10 03:10:06;;;;;;;1.10;0.40;;;;;;;22.87;61.07;102128.38;4991700;28;20058;-67
2022/05/10 03:12:31;;;;;;;0.20;0.20;;;;;;;22.88;61.29;102119.09;4990802;28;20034;-67
2022/05/10 03:14:57;;;;;;;0.30;0.30;;;;;;;22.86;61.72;102126.66;4990892;28;20046;-67
2022/05/10 03:17:23;;;;;;;0.45;0.20;;;;;;;22.88;61.45;102121.84;4990825;28;20061;-67
2022/05/10 03:19:48;;;;;;;0.30;0.28;;;;;;;22.88;61.53;102124.59;4990973;28;20116;-67
2022/05/10 03:22:13;;;;;;;0.30;0.20;;;;;;;22.88;61.47;102119.09;4974641;28;20065;-68
2022/05/10 03:24:38;;;;;;;0.30;0.20;;;;;;;22.88;60.96;102130.06;4974558;28;20075;-67
2022/05/10 03:27:06;;;;;;;1.00;0.22;;;;;;;22.89;60.91;102118.06;5036575;28;20045;-67
2022/05/10 03:29:31;;;;;;;0.25;0.20;;;;;;;22.89;61.54;102120.81;5052365;28;20025;-67
2022/05/10 03:31:56;;;;;;;0.15;0.15;;;;;;;22.90;61.06;102113.44;5053673;28;20025;-67
2022/05/10 03:37:06;;;;;;;0.20;0.17;;;;;;;22.90;61.85;102117.06;5052715;28;20151;-67
2022/05/10 03:39:31;;;;;;;0.52;0.30;;;;;;;22.89;61.85;102114.47;5052264;28;20588;-67
2022/05/10 03:41:56;;;;;;;1.30;0.30;;;;;;;22.89;61.51;102114.47;5053100;28;20033;-68
2022/05/10 03:44:22;;;;;;;0.10;0.10;;;;;;;22.89;61.63;102104.38;5053838;28;20108;-67
2022/05/10 03:46:48;;;;;;;0.10;0.10;;;;;;;22.89;61.82;102109.84;5056320;28;20044;-67
2022/05/10 03:49:14;;;;;;;0.20;0.15;;;;;;;22.91;61.65;102107.78;5056345;28;20079;-67
2022/05/10 03:51:39;;;;;;;0.20;0.20;;;;;;;22.91;61.40;102105.03;5056283;28;20071;-67
2022/05/10 03:54:05;;;;;;;0.38;0.20;;;;;;;22.93;61.62;102099.38;5056318;28;20017;-67
2022/05/10 03:56:30;;;;;;;0.30;0.10;;;;;;;22.92;61.20;102104.03;5056163;28;20396;-67
2022/05/10 03:58:55;;;;;;;0.30;0.20;;;;;;;22.90;61.13;102111.56;5057100;28;20114;-67
2022/05/10 04:01:21;;;;;;;0.50;0.20;;;;;;;22.92;61.27;102093.06;5056135;28;20025;-67
2022/05/10 04:03:47;;;;;;;0.45;0.20;;;;;;;23.08;60.68;102093.03;5071656;28;20151;-67
2022/05/10 04:06:13;;;;;;;0.17;0.10;;;;;;;23.18;60.63;102097.47;5056076;28;20071;-68
2022/05/10 04:08:38;;;;;;;0.35;0.05;;;;;;;23.26;61.18;102097.47;5056059;28;20024;-67
2022/05/10 04:11:06;;;;;;;0.10;0.03;;;;;;;23.30;61.24;102090.59;5056036;28;20033;-67
2022/05/10 04:13:32;;;;;;;0.35;0.17;;;;;;;23.38;61.00;102098.84;5057178;28;20025;-67
2022/05/10 04:15:58;;;;;;;1.58;0.20;;;;;;;23.40;60.99;102069.31;5056024;28;20094;-67
2022/05/10 04:18:24;;;;;;;0.45;0.20;;;;;;;23.44;60.98;102087.16;5060659;28;20017;-64
2022/05/10 04:20:49;;;;;;;0.10;0.10;;;;;;;23.45;61.66;102083.38;5069984;28;20040;-67
2022/05/10 04:23:14;;;;;;;0.10;0.10;;;;;;;23.50;61.01;102075.44;5054415;28;20538;-67
2022/05/10 04:25:39;;;;;;;0.00;0.00;;;;;;;23.52;61.49;102073.41;5055743;28;20037;-67
2022/05/10 04:28:06;;;;;;;0.13;0.13;;;;;;;23.53;61.59;102072.38;5056388;28;20045;-67
2022/05/10 04:30:32;;;;;;;0.20;0.20;;;;;;;23.57;61.30;102057.28;5055593;28;20025;-67
2022/05/10 04:32:58;;;;;;;0.17;0.00;;;;;;;23.56;61.35;102052.81;5055756;28;20053;-67
2022/05/10 04:35:23;;;;;;;0.00;0.00;;;;;;;23.59;61.84;102047.00;5055378;28;20027;-67
2022/05/10 04:37:49;;;;;;;0.15;0.10;;;;;;;23.61;62.20;102049.56;5054256;28;20452;-67
2022/05/10 04:43:00;;;;;;;0.10;0.10;;;;;;;23.64;62.27;102038.22;5035837;28;20026;-67
2022/05/10 04:45:25;;;;;;;1.35;0.10;;;;;;;23.65;62.43;102039.94;5032827;28;20397;-67
2022/05/10 04:47:51;;;;;;;0.65;0.10;;;;;;;23.68;62.91;102006.63;5033107;28;20049;-68
2022/05/10 04:50:16;;;;;;;1.33;0.55;;;;;;;23.66;62.15;102015.03;5032945;28;20111;-67
2022/05/10 04:52:41;;;;;;;0.70;0.10;;;;;;;23.69;62.53;102005.63;5032913;28;20091;-67
2022/05/10 04:55:09;;;;;;;0.47;0.25;;;;;;;23.69;62.25;102011.97;5032960;28;20068;-67
2022/05/10 04:57:38;;;;;;;0.22;0.20;;;;;;;23.73;62.80;101997.88;5032696;28;20044;-67
2022/05/10 05:00:06;;;;;;;0.28;0.17;;;;;;;23.73;62.58;101982.25;5032831;28;20770;-67
2022/05/10 05:02:31;;;;;;;0.03;0.03;;;;;;;23.72;62.81;101990.66;5034011;28;20040;-67
2022/05/10 05:04:56;;;;;;;0.93;0.30;;;;;;;23.77;62.31;101988.22;5033033;28;20025;-68
2022/05/10 05:07:21;;;;;;;0.47;0.20;;;;;;;23.76;62.45;101987.38;5020937;28;20437;-69
2022/05/10 05:09:47;;;;;;;0.30;0.20;;;;;;;23.76;62.63;101981.03;5057553;28;20017;-67
2022/05/10 05:12:12;;;;;;;0.10;0.10;;;;;;;23.78;62.71;101973.47;5032904;28;20037;-67
2022/05/10 05:14:38;;;;;;;0.60;0.35;;;;;;;23.81;62.60;101979.44;5032387;28;20042;-67
2022/05/10 05:17:03;;;;;;;0.40;0.20;;;;;;;23.79;62.79;101964.19;5032566;28;20031;-67
2022/05/10 05:19:28;;;;;;;0.55;0.17;;;;;;;23.82;63.02;101972.06;5039149;28;20120;-67
2022/05/10 05:21:54;;;;;;;0.30;0.13;;;;;;;23.81;62.70;101957.47;5055041;28;20283;-67
2022/05/10 05:24:19;;;;;;;0.52;0.40;;;;;;;23.82;62.83;101972.06;5054502;28;20444;-67
2022/05/10 05:26:46;;;;;;;0.15;0.15;;;;;;;23.84;62.88;101962.59;5054458;28;20021;-67
2022/05/10 05:29:12;;;;;;;0.20;0.13;;;;;;;23.85;62.72;101957.97;5054549;28;20418;-67
2022/05/10 05:31:37;;;;;;;0.80;0.20;;;;;;;23.85;62.74;101952.47;5054448;28;20128;-67
2022/05/10 05:34:02;;;;;;;0.25;0.10;;;;;;;23.85;63.28;101949.72;5069937;28;20052;-67
2022/05/10 05:36:28;;;;;;;0.73;0.20;;;;;;;23.88;62.31;101947.50;5055870;28;20132;-67
2022/05/10 05:38:53;;;;;;;0.30;0.25;;;;;;;23.88;62.65;101941.16;5054426;28;20033;-67
2022/05/10 05:41:18;;;;;;;0.50;0.28;;;;;;;23.86;62.80;101938.59;5054275;28;20289;-67
2022/05/10 05:43:44;;;;;;;0.55;0.10;;;;;;;23.89;62.90;101931.88;5054579;28;20017;-67
2022/05/10 05:46:09;;;;;;;0.98;0.10;;;;;;;23.90;62.34;101922.59;5054336;28;20491;-67
2022/05/10 05:48:35;;;;;;;0.75;0.10;;;;;;;23.91;63.23;101919.66;5054340;28;20058;-67
2022/05/10 05:51:00;;;;;;;0.68;0.22;;;;;;;23.88;62.86;101924.66;5055183;28;20037;-67
2022/05/10 05:53:28;;;;;;;0.55;0.10;;;;;;;23.91;63.30;101924.28;5057191;28;20037;-68
2022/05/10 05:56:00;;;;;;;0.60;0.38;;;;;;;23.92;62.88;101926.84;5069474;28;20032;-67
2022/05/10 05:58:25;;;;;;;0.47;0.20;;;;;;;23.93;63.24;101913.97;5053776;28;20021;-67
2022/05/10 06:00:50;;;;;;;0.25;0.10;;;;;;;23.92;62.72;101915.00;5054073;28;20109;-67
2022/05/10 06:03:16;;;;;;;0.17;0.10;;;;;;;23.93;62.83;101922.22;5054274;28;20479;-67
2022/05/10 06:05:41;;;;;;;0.88;0.25;;;;;;;23.94;63.09;101913.78;5054922;28;20039;-67
2022/05/10 06:08:09;;;;;;;0.55;0.10;;;;;;;23.96;62.86;101908.13;5053270;28;20071;-67
2022/05/10 06:10:34;;;;;;;0.73;0.10;;;;;;;23.94;63.06;101901.97;5053694;28;20550;-67
2022/05/10 06:13:01;;;;;;;0.22;0.10;;;;;;;23.95;63.38;101899.03;5066006;28;20111;-67
2022/05/10 06:15:27;;;;;;;0.40;0.10;;;;;;;24.03;62.44;101903.63;5072721;28;20115;-67
2022/05/10 06:17:52;;;;;;;2.88;0.77;;;;;;;23.94;59.89;101893.72;5073152;28;20046;-66
2022/05/10 06:20:20;;;;;;;0.10;0.10;;;;;;;23.82;58.01;101893.28;5074708;28;20456;-66
2022/05/10 06:22:46;;;;;;;2.30;0.10;;;;;;;23.69;57.42;101899.38;5071679;28;20028;-65
2022/05/10 06:25:15;;;;;;;0.40;0.10;;;;;;;23.72;58.62;101892.69;5053083;28;20396;-66
2022/05/10 06:27:40;;;;;;;0.20;0.10;;;;;;;23.70;58.60;101884.63;5061883;28;20068;-65
2022/05/10 06:30:06;;;;;;;1.40;0.10;;;;;;;23.68;57.33;101881.22;5054276;28;20392;-66
2022/05/10 06:32:31;;;;;;;0.38;0.10;;;;;;;23.69;57.99;101877.44;5051146;28;20483;-66
2022/05/10 06:34:59;;;;;;;0.17;0.05;;;;;;;23.73;57.45;101882.56;5053256;28;20025;-65
2022/05/10 06:40:11;;;;;;;;;;;;;;;23.69;56.96;101860.97;5059647;28;20036;-66
2022/05/10 06:42:37;;;;;;;0.10;0.00;;;;;;;23.67;56.55;101867.63;5052325;28;19958;-66
2022/05/10 06:45:04;;;;;;;0.20;0.10;;;;;;;23.67;56.40;101865.75;5052524;28;20460;-65
2022/05/10 06:47:29;;;;;;;1.25;0.10;;;;;;;23.70;57.45;101868.16;5052172;28;20047;-65
2022/05/10 06:49:54;;;;;;;0.50;0.30;;;;;;;23.68;56.63;101863.84;5052633;28;20456;-65
2022/05/10 06:52:19;;;;;;;0.75;0.10;;;;;;;23.72;57.15;101869.88;5053037;28;20028;-65
2022/05/10 06:54:45;;;;;;;0.10;0.10;;;;;;;23.69;57.25;101866.44;5052192;28;20031;-65
2022/05/10 06:57:10;;;;;;;0.22;0.10;;;;;;;23.69;56.70;101871.94;5067409;28;20514;-65
2022/05/10 06:59:36;;;;;;;0.10;0.10;;;;;;;23.71;56.49;101869.00;5070782;28;20357;-65
2022/05/10 07:02:01;;;;;;;0.40;0.20;;;;;;;23.66;55.88;101861.28;5071117;28;20062;-65
2022/05/10 07:04:27;;;;;;;0.15;0.10;;;;;;;23.69;56.84;101858.22;5071804;28;20410;-66
2022/05/10 07:06:52;;;;;;;1.27;0.20;;;;;;;23.70;55.96;101851.69;5072820;28;20028;-66
2022/05/10 07:09:18;;;;;;;0.30;0.30;;;;;;;23.68;55.75;101853.75;5070637;28;20021;-65
2022/05/10 07:11:43;;;;;;;0.32;0.10;;;;;;;23.73;55.95;101844.13;5071158;28;20027;-66
2022/05/10 07:14:09;;;;;;;0.10;0.10;;;;;;;23.69;56.26;101844.47;5072426;28;20028;-66
2022/05/10 07:16:34;;;;;;;0.93;0.20;;;;;;;23.70;56.05;101851.69;5062756;28;20096;-65
2022/05/10 07:19:00;;;;;;;0.45;0.10;;;;;;;23.72;56.29;101845.16;5051819;28;20380;-65
2022/05/10 07:21:25;;;;;;;0.20;0.20;;;;;;;23.70;56.75;101834.34;5058622;28;20387;-65
2022/05/10 07:23:50;;;;;;;0.30;0.20;;;;;;;23.69;55.93;101833.50;5072587;28;20024;-65
2022/05/10 07:26:15;;;;;;;0.20;0.20;;;;;;;23.70;55.55;101824.22;5071746;28;20036;-65
2022/05/10 07:28:41;;;;;;;0.38;0.10;;;;;;;23.72;56.57;101825.94;5067267;28;20083;-64
2022/05/10 07:31:06;;;;;;;0.17;0.10;;;;;;;23.68;55.72;101820.81;5053418;28;20032;-66
2022/05/10 07:33:31;;;;;;;1.95;0.30;;;;;;;23.72;56.84;101814.94;5051545;28;20021;-65
2022/05/10 07:38:42;;;;;;;0.52;0.10;;;;;;;23.69;55.02;101799.69;5054868;28;20066;-65
2022/05/10 07:41:08;;;;;;;0.40;0.17;;;;;;;23.72;55.95;101798.47;5051626;28;20028;-66
2022/05/10 07:43:36;;;;;;;0.35;0.25;;;;;;;23.69;55.72;101795.06;5051494;28;20066;-65
2022/05/10 07:46:02;;;;;;;1.23;0.30;;;;;;;23.70;55.54;101796.78;5054127;28;20031;-65
2022/05/10 07:48:27;;;;;;;0.20;0.20;;;;;;;23.74;55.44;101793.66;5070046;28;20395;-66
2022/05/10 07:50:53;;;;;;;0.20;0.20;;;;;;;23.72;55.29;101787.50;5063025;28;20029;-66
2022/05/10 07:53:18;;;;;;;0.10;0.10;;;;;;;23.70;55.35;101785.78;5069701;28;20415;-64
2022/05/10 07:55:46;;;;;;;0.40;0.10;;;;;;;23.72;56.29;101782.00;5076107;28;20029;-65
2022/05/10 07:58:13;;;;;;;0.20;0.20;;;;;;;23.73;56.34;101779.06;5071088;28;20031;-65
2022/05/10 08:00:40;;;;;;;0.22;0.20;;;;;;;23.73;55.70;101778.22;5071158;28;20510;-65
2022/05/10 08:03:15;;;;;;;0.10;0.00;;;;;;;23.72;55.95;101776.50;5070837;28;20125;-65
2022/05/10 08:05:41;;;;;;;0.88;0.10;;;;;;;23.73;56.15;101772.72;5068404;28;20029;-65
2022/05/10 08:08:08;;;;;;;0.30;0.20;;;;;;;23.72;55.05;101771.03;5071564;28;20039;-65
2022/05/10 08:10:34;;;;;;;1.95;0.30;;;;;;;23.73;55.20;101762.59;5071089;28;20403;-65
2022/05/10 08:12:59;;;;;;;1.40;0.52;;;;;;;23.68;54.67;101765.91;5071194;28;20138;-65
2022/05/10 08:15:25;;;;;;;0.25;0.20;;;;;;;23.70;55.16;101758.34;5070827;28;20036;-65
2022/05/10 08:17:52;;;;;;;0.55;0.10;;;;;;;23.76;56.28;101753.13;5071506;28;20032;-65
2022/05/10 08:20:18;;;;;;;0.30;0.10;;;;;;;23.74;55.30;101755.22;5071865;28;20023;-65
2022/05/10 08:22:43;;;;;;;0.60;0.15;;;;;;;23.75;55.45;101754.16;5069672;28;20024;-66
2022/05/10 08:25:11;;;;;;;1.08;0.20;;;;;;;23.74;56.30;101741.50;5067866;28;20062;-66
2022/05/10 08:27:36;;;;;;;1.60;0.25;;;;;;;24.00;55.04;101750.13;5071091;28;20402;-66
2022/05/10 08:30:02;;;;;;;1.10;0.30;;;;;;;23.95;54.78;101749.84;5053423;28;20028;-66
2022/05/10 08:32:27;;;;;;;0.68;0.30;;;;;;;23.92;54.85;101742.00;5054151;28;20032;-64
2022/05/10 08:34:53;;;;;;;0.13;0.10;;;;;;;23.92;55.37;101737.34;5054847;28;20107;-62
2022/05/10 08:37:18;;;;;;;0.55;0.17;;;;;;;23.95;55.49;101738.88;5053412;28;20395;-63
2022/05/10 08:39:43;;;;;;;1.85;0.20;;;;;;;23.92;55.63;101736.50;5057107;28;20013;-68
2022/05/10 08:42:28;;;;;;;0.32;0.13;;;;;;;23.84;54.16;101734.66;5058651;28;20436;-63
2022/05/10 08:45:02;;;;;;;1.58;0.20;;;;;;;23.83;54.25;101735.72;5055132;28;20021;-63
2022/05/10 08:47:28;;;;;;;0.52;0.20;;;;;;;23.89;54.85;101726.75;5054421;28;20027;-64
2022/05/10 08:50:00;;;;;;;1.40;0.13;;;;;;;23.98;57.05;101722.00;5054714;28;20032;-64
2022/05/10 08:52:35;;;;;;;0.95;0.20;;;;;;;24.03;58.33;101718.72;5053116;28;20029;-63
2022/05/10 08:55:02;;;;;;;0.32;0.10;;;;;;;24.01;58.81;101716.13;5069736;28;20107;-64
2022/05/10 08:57:46;;;;;;;0.70;0.10;;;;;;;24.04;59.61;101706.69;5073418;28;20024;-63
2022/05/10 09:00:19;;;;;;;0.47;0.10;;;;;;;24.06;60.96;101697.22;5065165;28;20476;-64
2022/05/10 09:02:51;;;;;;;0.55;0.40;;;;;;;24.06;60.79;101696.38;5067427;28;20028;-64
2022/05/10 09:05:19;;;;;;;0.57;0.20;;;;;;;24.09;60.66;101690.50;5065510;28;20021;-64
2022/05/10 09:08:05;;;;;;;0.20;0.13;;;;;;;24.07;61.63;101665.97;5054001;28;20039;-64
2022/05/10 09:10:41;;;;;;;0.30;0.10;;;;;;;24.09;61.51;101682.25;5054778;28;20108;-63
2022/05/10 09:13:11;;;;;;;0.25;0.10;;;;;;;24.09;62.29;101679.50;5055125;28;20025;-65
2022/05/10 09:15:40;;;;;;;0.22;0.17;;;;;;;24.09;61.58;101669.38;5069437;28;20049;-64
2022/05/10 09:18:16;;;;;;;0.82;0.22;;;;;;;24.10;62.31;101671.06;5067590;28;20091;-63
2022/05/10 09:20:52;;;;;;;0.45;0.20;;;;;;;24.12;61.90;101671.72;5070637;28;20582;-65
2022/05/10 09:23:52;;;;;;;0.70;0.20;;;;;;;24.11;62.11;101645.31;5067418;28;20021;-63
2022/05/10 09:26:22;;;;;;;0.88;0.50;;;;;;;24.11;61.90;101656.28;5005704;28;20056;-64
2022/05/10 09:29:00;;;;;;;0.28;0.20;;;;;;;24.13;62.72;101659.69;5007043;28;20041;-63
2022/05/10 09:37:19;;;;;;;0.40;0.30;;;;;;;24.15;62.59;101648.50;5010428;28;20117;-64
2022/05/10 09:40:03;;;;;;;0.43;0.20;;;;;;;24.16;62.60;101636.47;5007161;28;20033;-65
2022/05/10 09:42:34;;;;;;;0.63;0.22;;;;;;;24.18;63.10;101638.00;5009982;28;20052;-65
2022/05/10 09:45:20;;;;;;;1.08;0.20;;;;;;;24.16;63.18;101637.34;5008600;28;20044;-64
2022/05/10 09:47:59;;;;;;;0.10;0.10;;;;;;;24.16;63.08;101626.34;5016477;28;20025;-64
2022/05/10 09:50:31;;;;;;;0.65;0.20;;;;;;;24.14;62.94;101628.44;5010337;28;20038;-65
2022/05/10 09:53:14;;;;;;;0.95;0.45;;;;;;;24.17;63.13;101621.69;5009630;28;20038;-64
2022/05/10 09:55:51;;;;;;;0.80;0.20;;;;;;;24.17;63.25;101625.28;5005518;28;20033;-65
2022/05/10 09:58:20;;;;;;;0.10;0.10;;;;;;;24.19;63.17;101612.25;4992389;28;20125;-62
2022/05/10 10:00:52;;;;;;;1.08;0.20;;;;;;;24.21;63.98;101607.41;5019848;28;20026;-64
2022/05/10 10:03:27;;;;;;;0.10;0.10;;;;;;;24.22;63.05;101592.63;5035610;28;20028;-64
2022/05/10 10:05:56;;;;;;;0.30;0.20;;;;;;;24.24;63.36;101590.53;5061183;28;20029;-66
2022/05/10 10:08:48;;;;;;;0.20;0.20;;;;;;;24.23;63.15;101588.84;5070030;28;20036;-65
2022/05/10 10:11:38;;;;;;;0.93;0.30;;;;;;;24.23;63.31;101582.50;5064260;28;20078;-64
2022/05/10 10:14:06;;;;;;;0.32;0.20;;;;;;;24.23;63.62;101580.59;5065199;28;20115;-65
2022/05/10 10:16:34;;;;;;;0.35;0.05;;;;;;;24.22;63.96;101570.66;5070207;28;20044;-64
2022/05/10 10:19:05;;;;;;;0.22;0.15;;;;;;;24.23;63.46;101566.84;5069095;28;21207;-64
2022/05/10 10:21:56;;;;;;;0.10;0.10;;;;;;;24.23;63.66;101555.00;5067341;28;20036;-64
2022/05/10 10:24:39;;;;;;;0.10;0.10;;;;;;;24.23;63.31;101550.38;5050510;28;20495;-64
2022/05/10 10:27:10;;;;;;;0.60;0.20;;;;;;;24.25;63.63;101541.94;5052068;28;20056;-64
2022/05/10 10:29:41;;;;;;;0.28;0.20;;;;;;;24.22;64.06;101537.69;5053413;28;20392;-64
2022/05/10 10:32:44;;;;;;;0.38;0.25;;;;;;;24.26;63.71;101528.00;5053978;28;20033;-65
2022/05/10 10:35:30;;;;;;;0.30;0.20;;;;;;;24.28;63.74;101530.53;5042937;28;20037;-66
2022/05/10 10:38:06;;;;;;;0.30;0.13;;;;;;;24.27;64.14;101529.69;5030941;28;20539;-65
2022/05/10 10:40:36;;;;;;;0.20;0.10;;;;;;;24.29;64.06;101516.63;5030802;28;20033;-64
2022/05/10 10:43:13;;;;;;;0.20;0.20;;;;;;;24.26;64.35;101519.75;5030878;28;20036;-64
2022/05/10 10:45:45;;;;;;;0.73;0.20;;;;;;;24.25;63.74;101504.31;5033339;28;20038;-64
2022/05/10 10:48:28;;;;;;;0.20;0.20;;;;;;;24.25;63.52;101515.31;5030662;28;20029;-64
2022/05/10 10:50:54;;;;;;;1.10;0.17;;;;;;;24.28;63.77;101508.56;5014180;28;20040;-65
2022/05/10 10:53:22;;;;;;;0.47;0.38;;;;;;;24.27;63.86;101502.22;5030575;28;20519;-64
2022/05/10 10:56:09;;;;;;;0.22;0.15;;;;;;;24.28;63.68;101498.41;5030593;28;20033;-65
2022/05/10 10:59:05;;;;;;;0.43;0.10;;;;;;;24.29;63.63;101494.66;5030494;28;20120;-64
2022/05/10 11:01:39;;;;;;;0.20;0.20;;;;;;;24.32;63.92;101481.56;5030511;28;20410;-64
2022/05/10 11:04:30;;;;;;;0.40;0.20;;;;;;;24.30;64.28;101485.38;5030592;28;20025;-64
2022/05/10 11:06:56;;;;;;;0.10;0.10;;;;;;;24.29;64.02;101480.91;5034937;28;20033;-65
2022/05/10 11:09:43;;;;;;;0.20;0.20;;;;;;;24.30;64.14;101479.88;5030280;28;20029;-65
2022/05/10 11:12:16;;;;;;;0.30;0.20;;;;;;;24.32;64.16;101478.81;5051544;28;20517;-64
2022/05/10 11:15:09;;;;;;;0.28;0.20;;;;;;;24.32;64.17;101476.06;5072389;28;20519;-64
2022/05/10 11:17:53;;;;;;;0.20;0.20;;;;;;;24.32;64.27;101470.59;5073694;28;20031;-65
2022/05/10 11:20:45;;;;;;;0.20;0.20;;;;;;;24.33;64.05;101472.28;5070854;28;20056;-64
2022/05/10 11:23:36;;;;;;;0.88;0.35;;;;;;;24.33;63.76;101458.53;5072483;28;20127;-65
2022/05/10 11:26:19;;;;;;;0.30;0.20;;;;;;;24.37;64.13;101462.63;5072263;28;20097;-65
2022/05/10 11:29:10;;;;;;;0.40;0.22;;;;;;;24.33;64.07;101456.66;5072401;28;20086;-64
2022/05/10 11:31:45;;;;;;;0.40;0.30;;;;;;;24.34;64.18;101441.84;5071499;28;20032;-64
2022/05/10 11:34:29;;;;;;;1.40;0.20;;;;;;;24.35;63.74;101445.44;5070614;28;20520;-65
2022/05/10 11:36:58;;;;;;;0.50;0.30;;;;;;;24.33;64.30;101422.81;5073432;28;20038;-65
2022/05/10 11:39:54;;;;;;;0.13;0.13;;;;;;;24.34;63.86;101419.88;5072235;28;20059;-64
2022/05/10 11:42:35;;;;;;;0.20;0.15;;;;;;;24.35;64.78;101413.31;5075648;28;20055;-65
2022/05/10 11:45:35;;;;;;;0.38;0.20;;;;;;;24.35;64.56;101409.72;5072257;28;20020;-65
2022/05/10 11:48:38;;;;;;;0.43;0.10;;;;;;;24.34;64.35;101391.53;5072283;28;20021;-64
2022/05/10 11:51:38;;;;;;;1.63;0.57;;;;;;;24.36;64.54;101397.72;5074326;28;20114;-64
2022/05/10 11:54:29;;;;;;;0.15;0.10;;;;;;;24.36;64.54;101383.97;5070559;28;20391;-64
2022/05/10 11:56:55;;;;;;;0.20;0.10;;;;;;;24.34;64.32;101375.06;5064343;28;20043;-64
2022/05/10 11:59:31;;;;;;;0.17;0.17;;;;;;;24.37;64.46;101370.03;5054649;28;20025;-65
2022/05/10 12:01:57;;;;;;;0.35;0.20;;;;;;;24.36;63.89;101359.25;5056202;28;20465;-64
2022/05/10 12:04:34;;;;;;;0.47;0.20;;;;;;;24.38;64.69;101363.50;5055066;28;20096;-64